createdAt,value
2018-09-24T00:02:23.727Z,8.86
2018-09-24T00:04:51.282Z,8.86
2018-09-24T00:07:18.838Z,8.87
2018-09-24T00:09:46.421Z,8.86
2018-09-24T00:12:15.385Z,8.85
2018-09-24T00:14:43.319Z,8.85
2018-09-24T00:17:11.522Z,8.84
2018-09-24T00:19:39.059Z,8.84
2018-09-24T00:22:06.822Z,8.84
2018-09-24T00:24:34.484Z,8.81
2018-09-24T00:27:02.083Z,8.81
2018-09-24T00:29:29.651Z,8.79
2018-09-24T00:31:57.223Z,8.78
2018-09-24T00:34:24.905Z,8.77
2018-09-24T00:36:52.766Z,8.77
2018-09-24T00:39:20.314Z,8.75
2018-09-24T00:41:47.915Z,8.74
2018-09-24T00:44:16.035Z,8.73
2018-09-24T00:46:43.562Z,8.73
2018-09-24T00:49:11.105Z,8.72
2018-09-24T00:51:38.659Z,8.70
2018-09-24T00:54:06.351Z,8.70
2018-09-24T00:56:33.957Z,8.67
2018-09-24T00:59:01.962Z,8.67
2018-09-24T01:01:29.514Z,8.65
2018-09-24T01:03:57.027Z,8.64
2018-09-24T01:06:24.557Z,8.63
2018-09-24T01:08:52.148Z,8.62
2018-09-24T01:11:19.775Z,8.61
2018-09-24T01:13:47.690Z,8.61
2018-09-24T01:16:15.253Z,8.60
2018-09-24T01:18:42.798Z,8.58
2018-09-24T01:21:10.368Z,8.56
2018-09-24T01:23:37.933Z,8.52
2018-09-24T01:26:05.526Z,8.51
2018-09-24T01:28:33.103Z,8.49
2018-09-24T01:31:00.670Z,8.49
2018-09-24T01:33:28.249Z,8.49
2018-09-24T01:35:55.771Z,8.49
2018-09-24T01:38:23.368Z,8.49
2018-09-24T01:40:50.946Z,8.46
2018-09-24T01:43:18.502Z,8.46
2018-09-24T01:45:46.088Z,8.47
2018-09-24T01:48:13.673Z,8.46
2018-09-24T01:50:41.219Z,8.44
2018-09-24T01:53:09.019Z,8.43
2018-09-24T01:55:37.091Z,8.42
2018-09-24T01:58:04.665Z,8.42
2018-09-24T02:00:32.265Z,8.40
2018-09-24T02:02:59.806Z,8.40
2018-09-24T02:05:27.375Z,8.40
2018-09-24T02:07:55.034Z,8.42
2018-09-24T02:10:22.628Z,8.43
2018-09-24T02:12:50.165Z,8.44
2018-09-24T02:15:17.765Z,8.48
2018-09-24T02:17:45.299Z,8.50
2018-09-24T02:20:12.775Z,8.50
2018-09-24T02:22:40.276Z,8.53
2018-09-24T02:25:07.775Z,8.55
2018-09-24T02:27:35.295Z,8.57
2018-09-24T02:32:38.168Z,8.53
2018-09-24T02:35:05.863Z,8.57
2018-09-24T02:37:33.418Z,8.60
2018-09-24T02:40:02.597Z,8.62
2018-09-24T02:42:30.083Z,8.63
2018-09-24T02:44:58.768Z,8.65
2018-09-24T02:47:29.901Z,8.64
2018-09-24T02:49:57.440Z,8.61
2018-09-24T02:52:24.943Z,8.57
2018-09-24T02:54:52.447Z,8.53
2018-09-24T02:57:19.987Z,8.51
2018-09-24T02:59:47.478Z,8.49
2018-09-24T03:02:14.979Z,8.46
2018-09-24T03:04:42.449Z,8.45
2018-09-24T03:07:09.969Z,8.41
2018-09-24T03:09:37.456Z,8.39
2018-09-24T03:12:04.986Z,8.36
2018-09-24T03:14:32.564Z,8.33
2018-09-24T03:17:00.449Z,8.32
2018-09-24T03:19:28.010Z,8.32
2018-09-24T03:21:55.582Z,8.31
2018-09-24T03:24:23.084Z,8.31
2018-09-24T03:26:50.624Z,8.28
2018-09-24T03:29:18.124Z,8.26
2018-09-24T03:31:45.632Z,8.26
2018-09-24T03:34:14.007Z,8.24
2018-09-24T03:36:41.555Z,8.24
2018-09-24T03:39:09.108Z,8.23
2018-09-24T03:41:36.584Z,8.21
2018-09-24T03:44:04.556Z,8.20
2018-09-24T03:46:32.079Z,8.19
2018-09-24T03:48:59.608Z,8.16
2018-09-24T03:51:27.119Z,8.13
2018-09-24T03:53:54.602Z,8.13
2018-09-24T03:56:22.087Z,8.09
2018-09-24T03:58:50.020Z,8.10
2018-09-24T04:01:17.504Z,8.08
2018-09-24T04:03:45.016Z,8.07
2018-09-24T04:06:17.785Z,8.04
2018-09-24T04:08:50.495Z,8.04
2018-09-24T04:11:23.069Z,8.02
2018-09-24T04:13:55.734Z,8.00
2018-09-24T04:16:28.365Z,8.00
2018-09-24T04:19:01.151Z,7.99
2018-09-24T04:21:34.334Z,7.99
2018-09-24T04:24:06.905Z,7.97
2018-09-24T04:26:40.239Z,7.95
2018-09-24T04:29:13.352Z,7.94
2018-09-24T04:31:46.176Z,7.93
2018-09-24T04:34:18.912Z,7.93
2018-09-24T04:36:51.499Z,7.91
2018-09-24T04:39:24.522Z,7.91
2018-09-24T04:41:57.204Z,7.89
2018-09-24T04:44:29.786Z,7.89
2018-09-24T04:47:02.351Z,7.90
2018-09-24T04:49:35.903Z,7.87
2018-09-24T04:52:08.480Z,7.87
2018-09-24T04:54:41.627Z,7.86
2018-09-24T04:57:14.192Z,7.85
2018-09-24T04:59:47.595Z,7.85
2018-09-24T05:02:20.334Z,7.85
2018-09-24T05:04:53.092Z,7.86
2018-09-24T05:07:26.168Z,7.85
2018-09-24T05:09:58.853Z,7.85
2018-09-24T05:12:31.674Z,7.86
2018-09-24T05:15:04.340Z,7.85
2018-09-24T05:17:37.014Z,7.85
2018-09-24T05:20:09.931Z,7.86
2018-09-24T05:22:42.717Z,7.87
2018-09-24T05:25:15.418Z,7.88
2018-09-24T05:27:48.323Z,7.88
2018-09-24T05:30:21.044Z,7.88
2018-09-24T05:32:53.883Z,7.87
2018-09-24T05:35:27.270Z,7.85
2018-09-24T05:38:00.292Z,7.86
2018-09-24T05:40:32.968Z,7.85
2018-09-24T05:43:05.478Z,7.84
2018-09-24T05:45:38.524Z,7.84
2018-09-24T05:48:11.247Z,7.86
2018-09-24T05:50:44.111Z,7.87
2018-09-24T05:53:16.750Z,7.90
2018-09-24T05:55:50.072Z,7.91
2018-09-24T05:58:25.069Z,7.94
2018-09-24T06:00:57.668Z,7.95
2018-09-24T06:03:31.035Z,7.97
2018-09-24T06:06:04.118Z,7.98
2018-09-24T06:08:37.518Z,8.00
2018-09-24T06:11:10.137Z,8.04
2018-09-24T06:13:43.308Z,8.08
2018-09-24T06:16:15.863Z,8.12
2018-09-24T06:18:48.846Z,8.15
2018-09-24T06:21:21.300Z,8.18
2018-09-24T06:23:54.098Z,8.22
2018-09-24T06:26:27.344Z,8.25
2018-09-24T06:29:00.291Z,8.29
2018-09-24T06:31:33.004Z,8.33
2018-09-24T06:34:06.139Z,8.37
2018-09-24T06:36:39.360Z,8.40
2018-09-24T06:39:11.948Z,8.44
2018-09-24T06:41:46.116Z,8.48
2018-09-24T06:44:18.679Z,8.53
2018-09-24T06:46:51.666Z,8.55
2018-09-24T06:49:24.195Z,8.61
2018-09-24T06:51:57.671Z,8.67
2018-09-24T06:54:30.492Z,8.71
2018-09-24T06:57:03.182Z,8.78
2018-09-24T06:59:36.179Z,8.83
2018-09-24T07:02:08.904Z,8.91
2018-09-24T07:04:41.736Z,8.97
2018-09-24T07:07:15.456Z,9.06
2018-09-24T07:09:48.057Z,9.13
2018-09-24T07:12:21.511Z,9.22
2018-09-24T07:14:54.847Z,9.31
2018-09-24T07:17:28.091Z,9.40
2018-09-24T07:20:01.291Z,9.49
2018-09-24T07:22:33.865Z,9.59
2018-09-24T07:25:06.541Z,9.69
2018-09-24T07:27:39.467Z,9.78
2018-09-24T07:30:12.328Z,9.87
2018-09-24T07:32:45.604Z,9.96
2018-09-24T07:35:18.281Z,10.05
2018-09-24T07:37:51.592Z,10.15
2018-09-24T07:40:24.105Z,10.23
2018-09-24T07:42:59.528Z,10.32
2018-09-24T07:45:32.139Z,10.42
2018-09-24T07:48:05.660Z,10.51
2018-09-24T07:50:39.114Z,10.60
2018-09-24T07:53:12.419Z,10.71
2018-09-24T07:55:45.306Z,10.81
2018-09-24T07:58:18.020Z,10.88
2018-09-24T08:00:50.622Z,10.90
2018-09-24T08:03:23.335Z,10.98
2018-09-24T08:05:56.036Z,11.05
2018-09-24T08:08:29.700Z,11.14
2018-09-24T08:11:02.363Z,11.22
2018-09-24T08:13:35.291Z,11.33
2018-09-24T08:16:07.902Z,11.45
2018-09-24T08:18:42.572Z,11.57
2018-09-24T08:21:18.403Z,11.72
2018-09-24T08:23:51.123Z,11.89
2018-09-24T08:26:23.724Z,12.00
2018-09-24T08:28:56.912Z,12.07
2018-09-24T08:31:29.454Z,12.17
2018-09-24T08:34:02.386Z,12.35
2018-09-24T08:36:35.644Z,12.42
2018-09-24T08:39:09.574Z,12.46
2018-09-24T08:41:42.542Z,12.44
2018-09-24T08:44:15.260Z,12.51
2018-09-24T08:46:48.958Z,12.67
2018-09-24T08:49:21.540Z,12.75
2018-09-24T08:51:54.346Z,12.80
2018-09-24T08:54:28.508Z,12.86
2018-09-24T08:57:01.593Z,12.94
2018-09-24T08:59:34.602Z,13.02
2018-09-24T09:02:07.410Z,13.13
2018-09-24T09:04:45.074Z,13.26
2018-09-24T09:07:17.680Z,13.44
2018-09-24T09:09:50.686Z,13.73
2018-09-24T09:12:23.365Z,14.11
2018-09-24T09:14:56.124Z,14.53
2018-09-24T09:17:30.146Z,14.72
2018-09-24T09:20:03.429Z,14.73
2018-09-24T09:22:36.328Z,14.76
2018-09-24T09:25:09.676Z,14.84
2018-09-24T09:27:42.659Z,14.89
2018-09-24T09:30:15.961Z,14.85
2018-09-24T09:32:49.412Z,14.78
2018-09-24T09:35:22.067Z,14.73
2018-09-24T09:37:54.741Z,14.62
2018-09-24T09:40:28.840Z,14.51
2018-09-24T09:43:01.534Z,14.37
2018-09-24T09:45:34.424Z,14.36
2018-09-24T09:48:07.205Z,14.61
2018-09-24T09:50:41.822Z,14.67
2018-09-24T09:53:15.747Z,15.71
2018-09-24T09:55:48.504Z,16.71
2018-09-24T09:58:23.227Z,17.82
2018-09-24T10:01:00.091Z,18.49
2018-09-24T10:03:32.837Z,18.98
2018-09-24T10:06:07.108Z,19.70
2018-09-24T10:08:40.322Z,19.67
2018-09-24T10:11:13.044Z,19.08
2018-09-24T10:13:46.066Z,18.79
2018-09-24T10:16:19.495Z,18.20
2018-09-24T10:18:52.377Z,18.68
2018-09-24T10:21:25.108Z,18.80
2018-09-24T10:24:01.599Z,18.08
2018-09-24T10:26:34.146Z,17.36
2018-09-24T10:29:06.996Z,17.26
2018-09-24T10:31:39.898Z,17.12
2018-09-24T10:34:13.252Z,16.59
2018-09-24T10:36:50.801Z,17.27
2018-09-24T10:39:23.425Z,17.67
2018-09-24T10:41:56.968Z,18.60
2018-09-24T10:44:29.867Z,19.97
2018-09-24T10:47:02.608Z,19.95
2018-09-24T10:49:36.046Z,19.19
2018-09-24T10:52:10.038Z,18.32
2018-09-24T10:54:42.786Z,18.44
2018-09-24T10:57:17.007Z,19.35
2018-09-24T10:59:50.853Z,19.22
2018-09-24T11:02:23.590Z,18.58
2018-09-24T11:04:57.343Z,17.97
2018-09-24T11:07:30.031Z,17.42
2018-09-24T11:10:03.953Z,16.98
2018-09-24T11:12:36.633Z,17.10
2018-09-24T11:15:09.250Z,18.58
2018-09-24T11:17:42.472Z,20.05
2018-09-24T11:20:17.840Z,21.04
2018-09-24T11:22:50.604Z,21.74
2018-09-24T11:25:24.667Z,22.27
2018-09-24T11:27:57.275Z,22.83
2018-09-24T11:30:30.021Z,23.08
2018-09-24T11:33:02.591Z,23.78
2018-09-24T11:35:35.232Z,24.21
2018-09-24T11:38:08.157Z,23.59
2018-09-24T11:40:40.896Z,22.74
2018-09-24T11:43:13.551Z,22.73
2018-09-24T11:45:46.660Z,22.84
2018-09-24T11:48:19.317Z,23.04
2018-09-24T11:50:51.958Z,22.84
2018-09-24T11:53:25.484Z,21.90
2018-09-24T11:55:58.262Z,20.73
2018-09-24T11:58:31.179Z,19.68
2018-09-24T12:01:03.907Z,18.77
2018-09-24T12:03:36.559Z,19.17
2018-09-24T12:06:10.277Z,19.64
2018-09-24T12:08:43.523Z,19.18
2018-09-24T12:11:16.597Z,18.45
2018-09-24T12:13:49.406Z,17.77
2018-09-24T12:16:22.429Z,17.41
2018-09-24T12:18:54.941Z,18.14
2018-09-24T12:21:27.741Z,19.25
2018-09-24T12:24:00.480Z,19.31
2018-09-24T12:26:33.355Z,18.73
2018-09-24T12:29:06.036Z,17.96
2018-09-24T12:31:41.017Z,17.24
2018-09-24T12:34:13.745Z,16.55
2018-09-24T12:36:46.310Z,15.80
2018-09-24T12:39:19.480Z,15.14
2018-09-24T12:41:53.137Z,14.70
2018-09-24T12:44:26.203Z,14.41
2018-09-24T12:46:58.828Z,14.28
2018-09-24T12:49:32.592Z,14.20
2018-09-24T12:52:06.824Z,14.09
2018-09-24T12:54:40.312Z,13.95
2018-09-24T12:57:14.118Z,13.77
2018-09-24T12:59:47.548Z,13.62
2018-09-24T13:02:21.064Z,13.46
2018-09-24T13:04:54.251Z,13.28
2018-09-24T13:07:30.515Z,13.11
2018-09-24T13:10:03.909Z,12.94
2018-09-24T13:12:36.636Z,12.80
2018-09-24T13:15:10.160Z,12.69
2018-09-24T13:17:43.382Z,12.69
2018-09-24T13:20:15.902Z,12.84
2018-09-24T13:22:50.250Z,13.02
2018-09-24T13:25:23.740Z,13.28
2018-09-24T13:27:59.369Z,13.58
2018-09-24T13:30:32.426Z,13.79
2018-09-24T13:33:07.234Z,13.86
2018-09-24T13:35:39.874Z,14.00
2018-09-24T13:38:12.841Z,14.17
2018-09-24T13:40:46.398Z,14.36
2018-09-24T13:43:20.119Z,14.35
2018-09-24T13:45:52.959Z,14.38
2018-09-24T13:48:25.958Z,14.44
2018-09-24T13:50:58.523Z,14.54
2018-09-24T13:53:32.241Z,14.62
2018-09-24T13:56:04.796Z,14.72
2018-09-24T13:58:37.817Z,14.79
2018-09-24T14:01:11.291Z,14.91
2018-09-24T14:03:44.017Z,15.04
2018-09-24T14:06:20.732Z,15.17
2018-09-24T14:08:53.948Z,15.32
2018-09-24T14:11:26.694Z,15.50
2018-09-24T14:14:01.241Z,15.60
2018-09-24T14:16:34.010Z,15.46
2018-09-24T14:19:06.608Z,15.14
2018-09-24T14:21:40.193Z,14.71
2018-09-24T14:24:13.461Z,14.35
2018-09-24T14:26:46.040Z,14.05
2018-09-24T14:29:19.131Z,13.81
2018-09-24T14:31:51.852Z,13.60
2018-09-24T14:34:24.468Z,13.43
2018-09-24T14:37:01.175Z,13.30
2018-09-24T14:39:33.855Z,13.34
2018-09-24T14:42:07.119Z,13.40
2018-09-24T14:44:41.179Z,13.49
2018-09-24T14:47:13.862Z,13.51
2018-09-24T14:49:46.827Z,13.50
2018-09-24T14:52:20.113Z,13.53
2018-09-24T14:54:58.677Z,13.50
2018-09-24T14:57:31.392Z,13.46
2018-09-24T15:00:05.217Z,13.46
2018-09-24T15:02:38.675Z,13.50
2018-09-24T15:05:12.793Z,13.58
2018-09-24T15:07:47.054Z,13.64
2018-09-24T15:10:19.662Z,13.67
2018-09-24T15:12:52.407Z,13.84
2018-09-24T15:15:27.338Z,14.26
2018-09-24T15:18:00.024Z,14.63
2018-09-24T15:20:33.233Z,15.01
2018-09-24T15:23:06.256Z,15.45
2018-09-24T15:25:42.939Z,15.85
2018-09-24T15:28:15.792Z,16.12
2018-09-24T15:30:48.448Z,16.23
2018-09-24T15:33:22.282Z,16.31
2018-09-24T15:35:55.347Z,16.38
2018-09-24T15:38:29.083Z,16.42
2018-09-24T15:41:02.035Z,16.44
2018-09-24T15:43:34.629Z,16.49
2018-09-24T15:46:07.602Z,16.36
2018-09-24T15:48:44.590Z,16.08
2018-09-24T15:51:17.140Z,15.82
2018-09-24T15:53:50.229Z,15.58
2018-09-24T15:56:22.810Z,15.40
2018-09-24T15:58:55.567Z,15.24
2018-09-24T16:01:33.089Z,15.10
2018-09-24T16:04:07.557Z,14.89
2018-09-24T16:06:40.973Z,14.72
2018-09-24T16:09:13.636Z,14.56
2018-09-24T16:11:46.480Z,14.40
2018-09-24T16:14:24.007Z,14.26
2018-09-24T16:16:57.304Z,14.13
2018-09-24T16:19:30.884Z,14.02
2018-09-24T16:22:03.552Z,13.92
2018-09-24T16:24:41.494Z,13.84
2018-09-24T16:27:17.161Z,13.74
2018-09-24T16:29:52.500Z,13.65
2018-09-24T16:32:25.036Z,13.60
2018-09-24T16:34:57.739Z,13.53
2018-09-24T16:37:30.882Z,13.46
2018-09-24T16:40:05.005Z,13.39
2018-09-24T16:42:37.973Z,13.33
2018-09-24T16:45:10.636Z,13.29
2018-09-24T16:47:44.258Z,13.30
2018-09-24T16:50:18.089Z,13.31
2018-09-24T16:52:50.754Z,13.32
2018-09-24T16:55:23.768Z,13.29
2018-09-24T16:57:57.524Z,13.25
2018-09-24T17:00:30.472Z,13.23
2018-09-24T17:03:02.997Z,13.22
2018-09-24T17:05:36.012Z,13.18
2018-09-24T17:08:08.739Z,13.14
2018-09-24T17:10:42.431Z,13.12
2018-09-24T17:13:15.558Z,12.95
2018-09-24T17:15:48.838Z,12.74
2018-09-24T17:18:22.533Z,12.52
2018-09-24T17:20:55.107Z,12.30
2018-09-24T17:23:29.281Z,12.12
2018-09-24T17:26:02.009Z,11.98
2018-09-24T17:28:34.724Z,11.85
2018-09-24T17:31:07.952Z,11.73
2018-09-24T17:33:40.668Z,11.62
2018-09-24T17:36:13.233Z,11.50
2018-09-24T17:38:46.449Z,11.40
2018-09-24T17:41:19.285Z,11.30
2018-09-24T17:43:52.320Z,11.18
2018-09-24T17:46:28.554Z,11.10
2018-09-24T17:49:01.361Z,11.02
2018-09-24T17:51:34.105Z,10.96
2018-09-24T17:54:06.849Z,10.88
2018-09-24T17:56:40.577Z,10.81
2018-09-24T17:59:13.318Z,10.76
2018-09-24T18:01:46.383Z,10.69
2018-09-24T18:04:20.569Z,10.64
2018-09-24T18:06:53.262Z,10.59
2018-09-24T18:09:26.904Z,10.52
2018-09-24T18:12:00.300Z,10.48
2018-09-24T18:14:33.271Z,10.42
2018-09-24T18:17:05.827Z,10.36
2018-09-24T18:19:38.625Z,10.33
2018-09-24T18:22:13.801Z,10.29
2018-09-24T18:24:46.433Z,10.25
2018-09-24T18:27:19.429Z,10.21
2018-09-24T18:29:52.019Z,10.19
2018-09-24T18:32:24.898Z,10.22
2018-09-24T18:34:57.769Z,10.30
2018-09-24T18:37:33.694Z,10.39
2018-09-24T18:40:07.435Z,10.46
2018-09-24T18:42:40.159Z,10.51
2018-09-24T18:45:12.841Z,10.51
2018-09-24T18:47:45.809Z,10.49
2018-09-24T18:50:18.525Z,10.45
2018-09-24T18:52:51.623Z,10.43
2018-09-24T18:55:27.007Z,10.41
2018-09-24T18:58:00.328Z,10.40
2018-09-24T19:00:34.293Z,10.39
2018-09-24T19:03:08.513Z,10.38
2018-09-24T19:05:41.500Z,10.34
2018-09-24T19:08:14.620Z,10.28
2018-09-24T19:10:48.454Z,10.21
2018-09-24T19:13:22.597Z,10.16
2018-09-24T19:15:55.297Z,10.09
2018-09-24T19:18:28.401Z,10.04
2018-09-24T19:21:01.152Z,10.01
2018-09-24T19:23:40.051Z,9.95
2018-09-24T19:26:17.587Z,9.88
2018-09-24T19:28:52.332Z,9.83
2018-09-24T19:31:26.530Z,9.78
2018-09-24T19:34:00.040Z,9.73
2018-09-24T19:36:32.989Z,9.68
2018-09-24T19:39:07.010Z,9.65
2018-09-24T19:41:43.681Z,9.61
2018-09-24T19:44:16.924Z,9.58
2018-09-24T19:46:50.068Z,9.56
2018-09-24T19:49:23.371Z,9.51
2018-09-24T19:51:58.146Z,9.48
2018-09-24T19:54:30.900Z,9.43
2018-09-24T19:57:04.838Z,9.37
2018-09-24T19:59:37.860Z,9.34
2018-09-24T20:02:10.449Z,9.32
2018-09-24T20:07:22.017Z,9.31
2018-09-24T20:09:57.888Z,9.29
2018-09-24T20:12:30.885Z,9.32
2018-09-24T20:15:03.952Z,9.32
2018-09-24T20:17:36.580Z,9.33
2018-09-24T20:20:11.527Z,9.32
2018-09-24T20:22:48.317Z,9.34
2018-09-24T20:25:20.925Z,9.37
2018-09-24T20:27:53.658Z,9.42
2018-09-24T20:30:26.400Z,9.43
2018-09-24T20:33:01.479Z,9.45
2018-09-24T20:35:35.054Z,9.47
2018-09-24T20:38:08.022Z,9.50
2018-09-24T20:40:41.212Z,9.55
2018-09-24T20:43:15.107Z,9.59
2018-09-24T20:45:48.674Z,9.61
2018-09-24T20:48:24.440Z,9.57
2018-09-24T20:50:57.373Z,9.52
2018-09-24T20:53:30.139Z,9.47
2018-09-24T20:56:02.684Z,9.42
2018-09-24T20:58:36.752Z,9.37
2018-09-24T21:01:09.348Z,9.32
2018-09-24T21:03:42.213Z,9.26
2018-09-24T21:06:14.785Z,9.22
2018-09-24T21:08:47.480Z,9.17
2018-09-24T21:11:22.083Z,9.14
2018-09-24T21:13:54.900Z,9.13
2018-09-24T21:16:27.598Z,9.15
2018-09-24T21:19:00.801Z,9.19
2018-09-24T21:21:34.799Z,9.25
2018-09-24T21:24:07.401Z,9.32
2018-09-24T21:26:40.547Z,9.39
2018-09-24T21:29:13.129Z,9.45
2018-09-24T21:31:46.601Z,9.49
2018-09-24T21:34:19.536Z,9.53
2018-09-24T21:36:52.695Z,9.56
2018-09-24T21:39:25.514Z,9.57
2018-09-24T21:41:59.992Z,9.58
2018-09-24T21:44:32.872Z,9.53
2018-09-24T21:47:06.340Z,9.49
2018-09-24T21:49:40.138Z,9.42
2018-09-24T21:52:13.477Z,9.33
2018-09-24T21:54:48.063Z,9.26
2018-09-24T21:57:21.873Z,9.21
2018-09-24T21:59:54.558Z,9.16
2018-09-24T22:02:27.370Z,9.11
2018-09-24T22:05:00.033Z,9.07
2018-09-24T22:07:33.348Z,9.03
2018-09-24T22:10:07.409Z,8.98
2018-09-24T22:12:40.898Z,8.95
2018-09-24T22:15:13.533Z,8.92
2018-09-24T22:17:46.329Z,8.87
2018-09-24T22:20:19.392Z,8.83
2018-09-24T22:22:51.967Z,8.78
2018-09-24T22:25:24.689Z,8.75
2018-09-24T22:27:57.664Z,8.72
2018-09-24T22:30:30.401Z,8.70
2018-09-24T22:33:02.953Z,8.65
2018-09-24T22:35:35.776Z,8.63
2018-09-24T22:38:08.390Z,8.61
2018-09-24T22:40:41.098Z,8.60
2018-09-24T22:43:14.030Z,8.58
2018-09-24T22:45:46.709Z,8.54
2018-09-24T22:48:20.392Z,8.50
2018-09-24T22:50:53.867Z,8.45
2018-09-24T22:53:26.484Z,8.39
2018-09-24T22:55:59.364Z,8.37
2018-09-24T22:58:32.117Z,8.32
2018-09-24T23:01:04.680Z,8.26
2018-09-24T23:03:37.702Z,8.20
2018-09-24T23:06:10.469Z,8.14
2018-09-24T23:08:43.176Z,8.08
2018-09-24T23:11:16.033Z,8.03
2018-09-24T23:13:48.757Z,7.97
2018-09-24T23:16:21.431Z,7.93
2018-09-24T23:18:57.851Z,7.90
2018-09-24T23:21:31.474Z,7.92
2018-09-24T23:24:04.167Z,7.97
2018-09-24T23:26:37.229Z,8.00
2018-09-24T23:29:10.009Z,8.03
2018-09-24T23:31:42.672Z,8.05
2018-09-24T23:34:15.822Z,8.08
2018-09-24T23:36:48.414Z,8.06
2018-09-24T23:39:21.165Z,8.03
2018-09-24T23:41:54.113Z,7.98
2018-09-24T23:44:26.749Z,7.90
2018-09-24T23:46:59.507Z,7.85
2018-09-24T23:49:32.532Z,7.79
2018-09-24T23:52:06.328Z,7.73
2018-09-24T23:54:38.864Z,7.65
2018-09-24T23:57:12.755Z,7.58
2018-09-24T23:59:45.497Z,7.51
